sensor_id;sensor_type;location;lat;lon;timestamp;temperature;humidity
9824;DHT22;4951;50.778;7.196;2023-12-14T00:01:04;6.20;1.00
9824;DHT22;4951;50.778;7.196;2023-12-14T00:03:39;6.20;1.00
9824;DHT22;4951;50.778;7.196;2023-12-14T00:06:19;6.30;1.00
9824;DHT22;4951;50.778;7.196;2023-12-14T00:08:53;6.30;1.00
9824;DHT22;4951;50.778;7.196;2023-12-14T00:11:22;6.20;1.00
9824;DHT22;4951;50.778;7.196;2023-12-14T00:13:56;6.30;1.00
9824;DHT22;4951;50.778;7.196;2023-12-14T00:16:28;6.30;1.00
9824;DHT22;4951;50.778;7.196;2023-12-14T00:18:58;6.30;1.00
9824;DHT22;4951;50.778;7.196;2023-12-14T00:21:28;6.30;1.00
9824;DHT22;4951;50.778;7.196;2023-12-14T00:24:12;6.30;1.00
9824;DHT22;4951;50.778;7.196;2023-12-14T00:26:44;6.30;1.00
9824;DHT22;4951;50.778;7.196;2023-12-14T00:29:18;6.30;1.00
9824;DHT22;4951;50.778;7.196;2023-12-14T00:31:50;6.30;1.00
9824;DHT22;4951;50.778;7.196;2023-12-14T00:34:22;6.30;1.00
9824;DHT22;4951;50.778;7.196;2023-12-14T00:36:57;6.30;1.00
9824;DHT22;4951;50.778;7.196;2023-12-14T00:39:40;6.30;1.00
9824;DHT22;4951;50.778;7.196;2023-12-14T00:42:09;6.30;1.00
9824;DHT22;4951;50.778;7.196;2023-12-14T00:44:41;6.30;1.00
9824;DHT22;4951;50.778;7.196;2023-12-14T00:47:18;6.30;1.00
9824;DHT22;4951;50.778;7.196;2023-12-14T00:49:53;6.20;1.00
9824;DHT22;4951;50.778;7.196;2023-12-14T00:52:24;6.20;1.00
9824;DHT22;4951;50.778;7.196;2023-12-14T00:54:56;6.20;1.00
9824;DHT22;4951;50.778;7.196;2023-12-14T00:57:25;6.20;1.00
9824;DHT22;4951;50.778;7.196;2023-12-14T00:59:57;6.20;1.00
9824;DHT22;4951;50.778;7.196;2023-12-14T01:02:33;6.20;1.00
9824;DHT22;4951;50.778;7.196;2023-12-14T01:05:08;6.20;1.00
9824;DHT22;4951;50.778;7.196;2023-12-14T01:07:39;6.20;1.00
9824;DHT22;4951;50.778;7.196;2023-12-14T01:10:09;6.20;1.00
9824;DHT22;4951;50.778;7.196;2023-12-14T01:12:39;6.20;1.00
9824;DHT22;4951;50.778;7.196;2023-12-14T01:15:22;6.10;1.00
9824;DHT22;4951;50.778;7.196;2023-12-14T01:17:56;6.20;1.00
9824;DHT22;4951;50.778;7.196;2023-12-14T01:20:37;6.20;1.00
9824;DHT22;4951;50.778;7.196;2023-12-14T01:23:04;6.20;1.00
9824;DHT22;4951;50.778;7.196;2023-12-14T01:25:37;6.20;1.00
9824;DHT22;4951;50.778;7.196;2023-12-14T01:28:07;6.20;1.00
9824;DHT22;4951;50.778;7.196;2023-12-14T01:30:47;6.20;1.00
9824;DHT22;4951;50.778;7.196;2023-12-14T01:33:17;6.20;1.00
9824;DHT22;4951;50.778;7.196;2023-12-14T01:35:49;6.20;1.00
9824;DHT22;4951;50.778;7.196;2023-12-14T01:38:22;6.20;1.00
9824;DHT22;4951;50.778;7.196;2023-12-14T01:40:54;6.20;1.00
9824;DHT22;4951;50.778;7.196;2023-12-14T01:43:27;6.20;1.00
9824;DHT22;4951;50.778;7.196;2023-12-14T01:45:58;6.20;1.00
9824;DHT22;4951;50.778;7.196;2023-12-14T01:48:27;6.20;1.00
9824;DHT22;4951;50.778;7.196;2023-12-14T01:50:59;6.20;1.00
9824;DHT22;4951;50.778;7.196;2023-12-14T01:53:30;6.20;1.00
9824;DHT22;4951;50.778;7.196;2023-12-14T01:56:06;6.20;1.00
9824;DHT22;4951;50.778;7.196;2023-12-14T01:58:37;6.20;1.00
9824;DHT22;4951;50.778;7.196;2023-12-14T02:01:14;6.20;1.00
9824;DHT22;4951;50.778;7.196;2023-12-14T02:03:50;6.20;1.00
9824;DHT22;4951;50.778;7.196;2023-12-14T02:06:23;6.20;1.00
9824;DHT22;4951;50.778;7.196;2023-12-14T02:08:57;6.10;1.00
9824;DHT22;4951;50.778;7.196;2023-12-14T02:11:29;6.10;2.90
9824;DHT22;4951;50.778;7.196;2023-12-14T02:14:03;6.10;9.40
9824;DHT22;4951;50.778;7.196;2023-12-14T02:16:40;6.10;14.20
9824;DHT22;4951;50.778;7.196;2023-12-14T02:19:12;6.10;16.80
9824;DHT22;4951;50.778;7.196;2023-12-14T02:21:43;6.10;22.10
9824;DHT22;4951;50.778;7.196;2023-12-14T02:24:14;6.10;26.10
9824;DHT22;4951;50.778;7.196;2023-12-14T02:26:50;6.10;29.40
9824;DHT22;4951;50.778;7.196;2023-12-14T02:29:23;6.20;33.80
9824;DHT22;4951;50.778;7.196;2023-12-14T02:31:57;6.20;37.20
9824;DHT22;4951;50.778;7.196;2023-12-14T02:34:27;6.20;38.80
9824;DHT22;4951;50.778;7.196;2023-12-14T02:37:02;6.20;38.70
9824;DHT22;4951;50.778;7.196;2023-12-14T02:39:38;6.30;39.90
9824;DHT22;4951;50.778;7.196;2023-12-14T02:42:15;6.30;40.30
9824;DHT22;4951;50.778;7.196;2023-12-14T02:44:53;6.30;42.20
9824;DHT22;4951;50.778;7.196;2023-12-14T02:47:30;6.30;44.40
9824;DHT22;4951;50.778;7.196;2023-12-14T02:50:08;6.30;44.60
9824;DHT22;4951;50.778;7.196;2023-12-14T02:52:39;6.30;43.60
9824;DHT22;4951;50.778;7.196;2023-12-14T02:55:10;6.30;42.90
9824;DHT22;4951;50.778;7.196;2023-12-14T02:57:44;6.30;43.00
9824;DHT22;4951;50.778;7.196;2023-12-14T03:00:22;6.30;41.70
9824;DHT22;4951;50.778;7.196;2023-12-14T03:03:02;6.30;42.10
9824;DHT22;4951;50.778;7.196;2023-12-14T03:05:37;6.30;44.40
9824;DHT22;4951;50.778;7.196;2023-12-14T03:08:28;6.30;46.60
9824;DHT22;4951;50.778;7.196;2023-12-14T03:11:09;6.30;48.70
9824;DHT22;4951;50.778;7.196;2023-12-14T03:13:45;6.30;49.50
9824;DHT22;4951;50.778;7.196;2023-12-14T03:16:20;6.40;49.40
9824;DHT22;4951;50.778;7.196;2023-12-14T03:19:08;6.40;50.90
9824;DHT22;4951;50.778;7.196;2023-12-14T03:21:56;6.40;51.80
9824;DHT22;4951;50.778;7.196;2023-12-14T03:24:32;6.40;53.30
9824;DHT22;4951;50.778;7.196;2023-12-14T03:27:08;6.40;52.80
9824;DHT22;4951;50.778;7.196;2023-12-14T03:29:40;6.40;53.10
9824;DHT22;4951;50.778;7.196;2023-12-14T03:32:20;6.50;53.50
9824;DHT22;4951;50.778;7.196;2023-12-14T03:34:56;6.50;54.10
9824;DHT22;4951;50.778;7.196;2023-12-14T03:37:43;6.50;54.10
9824;DHT22;4951;50.778;7.196;2023-12-14T03:40:31;6.50;55.10
9824;DHT22;4951;50.778;7.196;2023-12-14T03:43:04;6.50;56.40
9824;DHT22;4951;50.778;7.196;2023-12-14T03:45:51;6.50;56.90
9824;DHT22;4951;50.778;7.196;2023-12-14T03:48:27;6.50;59.70
9824;DHT22;4951;50.778;7.196;2023-12-14T03:50:57;6.50;57.30
9824;DHT22;4951;50.778;7.196;2023-12-14T03:53:25;6.50;57.10
9824;DHT22;4951;50.778;7.196;2023-12-14T03:55:57;6.50;57.70
9824;DHT22;4951;50.778;7.196;2023-12-14T03:58:31;6.50;61.80
9824;DHT22;4951;50.778;7.196;2023-12-14T04:01:17;6.50;68.20
9824;DHT22;4951;50.778;7.196;2023-12-14T04:03:57;6.50;74.10
9824;DHT22;4951;50.778;7.196;2023-12-14T04:06:31;6.50;74.10
9824;DHT22;4951;50.778;7.196;2023-12-14T04:09:19;6.60;76.90
9824;DHT22;4951;50.778;7.196;2023-12-14T04:11:54;6.60;79.30
9824;DHT22;4951;50.778;7.196;2023-12-14T04:14:43;6.60;80.00
9824;DHT22;4951;50.778;7.196;2023-12-14T04:17:31;6.60;84.50
9824;DHT22;4951;50.778;7.196;2023-12-14T04:20:09;6.60;92.30
9824;DHT22;4951;50.778;7.196;2023-12-14T04:22:44;6.70;99.90
9824;DHT22;4951;50.778;7.196;2023-12-14T04:25:18;6.80;99.90
9824;DHT22;4951;50.778;7.196;2023-12-14T04:28:05;7.00;99.90
9824;DHT22;4951;50.778;7.196;2023-12-14T04:30:54;7.00;99.90
9824;DHT22;4951;50.778;7.196;2023-12-14T04:33:24;7.10;99.90
9824;DHT22;4951;50.778;7.196;2023-12-14T04:36:11;7.20;99.90
9824;DHT22;4951;50.778;7.196;2023-12-14T04:38:58;7.20;99.90
9824;DHT22;4951;50.778;7.196;2023-12-14T04:41:45;7.20;99.90
9824;DHT22;4951;50.778;7.196;2023-12-14T04:44:23;7.20;99.90
9824;DHT22;4951;50.778;7.196;2023-12-14T04:47:13;7.30;99.90
9824;DHT22;4951;50.778;7.196;2023-12-14T04:50:02;7.30;99.90
9824;DHT22;4951;50.778;7.196;2023-12-14T04:52:37;7.20;99.90
9824;DHT22;4951;50.778;7.196;2023-12-14T04:55:08;7.20;99.90
9824;DHT22;4951;50.778;7.196;2023-12-14T04:57:40;7.20;99.90
9824;DHT22;4951;50.778;7.196;2023-12-14T05:00:18;7.20;99.90
9824;DHT22;4951;50.778;7.196;2023-12-14T05:03:07;7.20;99.90
9824;DHT22;4951;50.778;7.196;2023-12-14T05:05:39;7.20;99.90
9824;DHT22;4951;50.778;7.196;2023-12-14T05:08:15;7.20;99.90
9824;DHT22;4951;50.778;7.196;2023-12-14T05:10:46;7.10;99.90
9824;DHT22;4951;50.778;7.196;2023-12-14T05:13:19;7.10;99.90
9824;DHT22;4951;50.778;7.196;2023-12-14T05:15:56;7.10;99.90
9824;DHT22;4951;50.778;7.196;2023-12-14T05:18:46;7.10;99.90
9824;DHT22;4951;50.778;7.196;2023-12-14T05:21:38;7.00;99.90
9824;DHT22;4951;50.778;7.196;2023-12-14T05:24:18;7.10;99.90
9824;DHT22;4951;50.778;7.196;2023-12-14T05:26:50;7.00;99.90
9824;DHT22;4951;50.778;7.196;2023-12-14T05:29:19;7.00;99.90
9824;DHT22;4951;50.778;7.196;2023-12-14T05:31:53;7.00;99.90
9824;DHT22;4951;50.778;7.196;2023-12-14T05:34:24;7.00;99.90
9824;DHT22;4951;50.778;7.196;2023-12-14T05:37:11;7.00;99.90
9824;DHT22;4951;50.778;7.196;2023-12-14T05:39:45;7.00;99.90
9824;DHT22;4951;50.778;7.196;2023-12-14T05:42:36;7.00;99.90
9824;DHT22;4951;50.778;7.196;2023-12-14T05:45:05;7.00;99.90
9824;DHT22;4951;50.778;7.196;2023-12-14T05:47:36;7.00;99.90
9824;DHT22;4951;50.778;7.196;2023-12-14T05:50:09;7.00;99.90
9824;DHT22;4951;50.778;7.196;2023-12-14T05:52:49;6.90;99.90
9824;DHT22;4951;50.778;7.196;2023-12-14T05:55:28;6.90;99.90
9824;DHT22;4951;50.778;7.196;2023-12-14T05:58:03;6.90;99.90
9824;DHT22;4951;50.778;7.196;2023-12-14T06:00:32;6.90;99.90
9824;DHT22;4951;50.778;7.196;2023-12-14T06:03:16;6.90;99.90
9824;DHT22;4951;50.778;7.196;2023-12-14T06:05:50;6.90;99.90
9824;DHT22;4951;50.778;7.196;2023-12-14T06:08:23;6.90;99.90
9824;DHT22;4951;50.778;7.196;2023-12-14T06:10:54;6.90;99.90
9824;DHT22;4951;50.778;7.196;2023-12-14T06:13:25;6.90;99.90
9824;DHT22;4951;50.778;7.196;2023-12-14T06:16:01;6.90;99.90
9824;DHT22;4951;50.778;7.196;2023-12-14T06:18:32;6.90;99.90
9824;DHT22;4951;50.778;7.196;2023-12-14T06:21:05;6.90;99.90
9824;DHT22;4951;50.778;7.196;2023-12-14T06:23:37;6.90;99.90
9824;DHT22;4951;50.778;7.196;2023-12-14T06:26:09;6.90;99.90
9824;DHT22;4951;50.778;7.196;2023-12-14T06:28:55;6.90;99.90
9824;DHT22;4951;50.778;7.196;2023-12-14T06:31:27;6.90;99.90
9824;DHT22;4951;50.778;7.196;2023-12-14T06:34:09;6.80;99.90
9824;DHT22;4951;50.778;7.196;2023-12-14T06:36:45;6.80;99.90
9824;DHT22;4951;50.778;7.196;2023-12-14T06:39:18;6.80;99.90
9824;DHT22;4951;50.778;7.196;2023-12-14T06:41:48;6.80;99.90
9824;DHT22;4951;50.778;7.196;2023-12-14T06:44:18;6.80;99.90
9824;DHT22;4951;50.778;7.196;2023-12-14T06:46:50;6.80;99.90
9824;DHT22;4951;50.778;7.196;2023-12-14T06:49:23;6.80;99.90
9824;DHT22;4951;50.778;7.196;2023-12-14T06:51:54;6.80;99.90
9824;DHT22;4951;50.778;7.196;2023-12-14T06:54:24;6.80;99.90
9824;DHT22;4951;50.778;7.196;2023-12-14T06:56:53;6.80;99.90
9824;DHT22;4951;50.778;7.196;2023-12-14T06:59:26;6.70;99.90
9824;DHT22;4951;50.778;7.196;2023-12-14T07:01:57;6.70;99.90
9824;DHT22;4951;50.778;7.196;2023-12-14T07:04:32;6.70;99.90
9824;DHT22;4951;50.778;7.196;2023-12-14T07:07:09;6.70;99.90
9824;DHT22;4951;50.778;7.196;2023-12-14T07:09:50;6.70;99.90
9824;DHT22;4951;50.778;7.196;2023-12-14T07:12:25;6.70;99.90
9824;DHT22;4951;50.778;7.196;2023-12-14T07:14:57;6.70;99.90
9824;DHT22;4951;50.778;7.196;2023-12-14T07:17:26;6.70;99.90
9824;DHT22;4951;50.778;7.196;2023-12-14T07:19:56;6.70;99.90
9824;DHT22;4951;50.778;7.196;2023-12-14T07:22:33;6.70;99.90
9824;DHT22;4951;50.778;7.196;2023-12-14T07:25:03;6.70;99.90
9824;DHT22;4951;50.778;7.196;2023-12-14T07:27:35;6.70;99.90
9824;DHT22;4951;50.778;7.196;2023-12-14T07:30:03;6.60;99.90
9824;DHT22;4951;50.778;7.196;2023-12-14T07:32:35;6.60;99.90
9824;DHT22;4951;50.778;7.196;2023-12-14T07:35:16;6.60;99.90
9824;DHT22;4951;50.778;7.196;2023-12-14T07:37:56;6.60;99.90
9824;DHT22;4951;50.778;7.196;2023-12-14T07:40:33;6.60;99.90
9824;DHT22;4951;50.778;7.196;2023-12-14T07:43:10;6.50;99.90
9824;DHT22;4951;50.778;7.196;2023-12-14T07:45:40;6.50;99.90
9824;DHT22;4951;50.778;7.196;2023-12-14T07:48:17;6.50;99.90
9824;DHT22;4951;50.778;7.196;2023-12-14T07:50:50;6.50;99.90
9824;DHT22;4951;50.778;7.196;2023-12-14T07:53:35;6.50;99.90
9824;DHT22;4951;50.778;7.196;2023-12-14T07:56:08;6.50;99.90
9824;DHT22;4951;50.778;7.196;2023-12-14T07:58:49;6.40;99.90
9824;DHT22;4951;50.778;7.196;2023-12-14T08:01:18;6.40;99.90
9824;DHT22;4951;50.778;7.196;2023-12-14T08:03:55;6.40;99.90
9824;DHT22;4951;50.778;7.196;2023-12-14T08:06:29;6.40;99.90
9824;DHT22;4951;50.778;7.196;2023-12-14T08:09:06;6.40;99.90
9824;DHT22;4951;50.778;7.196;2023-12-14T08:11:42;6.40;99.90
9824;DHT22;4951;50.778;7.196;2023-12-14T08:14:13;6.40;99.90
9824;DHT22;4951;50.778;7.196;2023-12-14T08:16:44;6.40;99.90
9824;DHT22;4951;50.778;7.196;2023-12-14T08:19:14;6.40;99.90
9824;DHT22;4951;50.778;7.196;2023-12-14T08:21:43;6.40;99.90
9824;DHT22;4951;50.778;7.196;2023-12-14T08:24:19;6.40;99.90
9824;DHT22;4951;50.778;7.196;2023-12-14T08:26:51;6.40;99.90
9824;DHT22;4951;50.778;7.196;2023-12-14T08:29:30;6.40;99.90
9824;DHT22;4951;50.778;7.196;2023-12-14T08:32:07;6.40;99.90
9824;DHT22;4951;50.778;7.196;2023-12-14T08:34:41;6.40;99.90
9824;DHT22;4951;50.778;7.196;2023-12-14T08:37:22;6.30;99.90
9824;DHT22;4951;50.778;7.196;2023-12-14T08:39:54;6.30;99.90
9824;DHT22;4951;50.778;7.196;2023-12-14T08:42:22;6.20;99.90
9824;DHT22;4951;50.778;7.196;2023-12-14T08:44:54;6.20;99.90
9824;DHT22;4951;50.778;7.196;2023-12-14T08:47:29;6.20;99.90
9824;DHT22;4951;50.778;7.196;2023-12-14T08:50:08;6.20;99.90
9824;DHT22;4951;50.778;7.196;2023-12-14T08:52:41;6.20;99.90
9824;DHT22;4951;50.778;7.196;2023-12-14T08:55:23;6.20;99.90
9824;DHT22;4951;50.778;7.196;2023-12-14T08:57:52;6.20;99.90
9824;DHT22;4951;50.778;7.196;2023-12-14T09:00:24;6.20;99.90
9824;DHT22;4951;50.778;7.196;2023-12-14T09:02:56;6.20;99.90
9824;DHT22;4951;50.778;7.196;2023-12-14T09:05:29;6.20;99.90
9824;DHT22;4951;50.778;7.196;2023-12-14T09:08:00;6.20;99.90
9824;DHT22;4951;50.778;7.196;2023-12-14T09:10:36;6.10;99.90
9824;DHT22;4951;50.778;7.196;2023-12-14T09:13:12;6.10;99.90
9824;DHT22;4951;50.778;7.196;2023-12-14T09:15:40;6.10;99.90
9824;DHT22;4951;50.778;7.196;2023-12-14T09:18:11;6.10;99.90
9824;DHT22;4951;50.778;7.196;2023-12-14T09:20:47;6.10;99.90
9824;DHT22;4951;50.778;7.196;2023-12-14T09:23:19;6.10;99.90
9824;DHT22;4951;50.778;7.196;2023-12-14T09:25:50;6.10;99.90
9824;DHT22;4951;50.778;7.196;2023-12-14T09:28:20;6.10;99.90
9824;DHT22;4951;50.778;7.196;2023-12-14T09:30:51;6.10;99.90
9824;DHT22;4951;50.778;7.196;2023-12-14T09:33:23;6.10;99.90
9824;DHT22;4951;50.778;7.196;2023-12-14T09:35:56;6.10;99.90
9824;DHT22;4951;50.778;7.196;2023-12-14T09:38:28;6.10;99.90
9824;DHT22;4951;50.778;7.196;2023-12-14T09:41:04;6.10;99.90
9824;DHT22;4951;50.778;7.196;2023-12-14T09:43:34;6.10;99.90
9824;DHT22;4951;50.778;7.196;2023-12-14T09:46:05;6.10;99.90
9824;DHT22;4951;50.778;7.196;2023-12-14T09:48:35;6.10;99.90
9824;DHT22;4951;50.778;7.196;2023-12-14T09:51:04;6.10;99.90
9824;DHT22;4951;50.778;7.196;2023-12-14T09:53:36;6.00;99.90
9824;DHT22;4951;50.778;7.196;2023-12-14T09:56:08;6.00;99.90
9824;DHT22;4951;50.778;7.196;2023-12-14T09:58:40;6.00;99.90
9824;DHT22;4951;50.778;7.196;2023-12-14T10:01:22;6.00;99.90
9824;DHT22;4951;50.778;7.196;2023-12-14T10:04:10;6.00;99.90
9824;DHT22;4951;50.778;7.196;2023-12-14T10:06:44;5.90;99.90
9824;DHT22;4951;50.778;7.196;2023-12-14T10:09:23;5.90;99.90
9824;DHT22;4951;50.778;7.196;2023-12-14T10:12:05;6.00;99.90
9824;DHT22;4951;50.778;7.196;2023-12-14T10:14:43;5.90;99.90
9824;DHT22;4951;50.778;7.196;2023-12-14T10:17:18;6.00;99.90
9824;DHT22;4951;50.778;7.196;2023-12-14T10:19:50;5.90;99.90
9824;DHT22;4951;50.778;7.196;2023-12-14T10:22:22;5.90;99.90
9824;DHT22;4951;50.778;7.196;2023-12-14T10:24:51;5.90;99.90
9824;DHT22;4951;50.778;7.196;2023-12-14T10:27:23;5.90;99.90
9824;DHT22;4951;50.778;7.196;2023-12-14T10:29:58;5.90;99.90
9824;DHT22;4951;50.778;7.196;2023-12-14T10:32:48;5.90;99.90
9824;DHT22;4951;50.778;7.196;2023-12-14T10:35:19;5.90;99.90
9824;DHT22;4951;50.778;7.196;2023-12-14T10:37:52;5.90;99.90
9824;DHT22;4951;50.778;7.196;2023-12-14T10:40:25;5.90;99.90
9824;DHT22;4951;50.778;7.196;2023-12-14T10:43:00;5.90;99.90
9824;DHT22;4951;50.778;7.196;2023-12-14T10:45:32;5.90;99.90
9824;DHT22;4951;50.778;7.196;2023-12-14T10:48:01;5.90;99.90
9824;DHT22;4951;50.778;7.196;2023-12-14T10:50:33;5.90;99.90
9824;DHT22;4951;50.778;7.196;2023-12-14T10:53:07;5.90;99.90
9824;DHT22;4951;50.778;7.196;2023-12-14T10:55:44;5.90;99.90
9824;DHT22;4951;50.778;7.196;2023-12-14T10:58:21;5.90;99.90
9824;DHT22;4951;50.778;7.196;2023-12-14T11:00:59;5.90;99.90
9824;DHT22;4951;50.778;7.196;2023-12-14T11:03:33;6.00;99.90
9824;DHT22;4951;50.778;7.196;2023-12-14T11:06:21;5.90;99.90
9824;DHT22;4951;50.778;7.196;2023-12-14T11:09:05;5.90;99.90
9824;DHT22;4951;50.778;7.196;2023-12-14T11:11:41;5.90;99.90
9824;DHT22;4951;50.778;7.196;2023-12-14T11:14:19;5.90;99.90
9824;DHT22;4951;50.778;7.196;2023-12-14T11:16:51;5.90;99.90
9824;DHT22;4951;50.778;7.196;2023-12-14T11:19:29;5.90;99.90
9824;DHT22;4951;50.778;7.196;2023-12-14T11:22:12;5.90;99.90
9824;DHT22;4951;50.778;7.196;2023-12-14T11:24:54;5.80;99.90
9824;DHT22;4951;50.778;7.196;2023-12-14T11:27:42;5.80;99.90
9824;DHT22;4951;50.778;7.196;2023-12-14T11:30:18;5.70;99.90
9824;DHT22;4951;50.778;7.196;2023-12-14T11:32:50;5.70;99.90
9824;DHT22;4951;50.778;7.196;2023-12-14T11:35:20;5.70;99.90
9824;DHT22;4951;50.778;7.196;2023-12-14T11:37:49;5.70;99.90
9824;DHT22;4951;50.778;7.196;2023-12-14T11:40:22;5.70;99.90
9824;DHT22;4951;50.778;7.196;2023-12-14T11:42:58;5.80;99.90
9824;DHT22;4951;50.778;7.196;2023-12-14T11:46:03;5.80;99.90
9824;DHT22;4951;50.778;7.196;2023-12-14T11:48:33;5.80;99.90
9824;DHT22;4951;50.778;7.196;2023-12-14T11:51:10;5.90;99.90
9824;DHT22;4951;50.778;7.196;2023-12-14T11:53:48;6.00;99.90
9824;DHT22;4951;50.778;7.196;2023-12-14T11:56:18;6.00;99.90
9824;DHT22;4951;50.778;7.196;2023-12-14T11:58:51;6.00;99.90
9824;DHT22;4951;50.778;7.196;2023-12-14T12:01:30;6.00;99.90
9824;DHT22;4951;50.778;7.196;2023-12-14T12:04:09;6.00;99.90
9824;DHT22;4951;50.778;7.196;2023-12-14T12:06:39;5.90;99.90
9824;DHT22;4951;50.778;7.196;2023-12-14T12:09:09;5.90;99.90
9824;DHT22;4951;50.778;7.196;2023-12-14T12:11:41;5.90;99.90
9824;DHT22;4951;50.778;7.196;2023-12-14T12:14:13;6.00;99.90
9824;DHT22;4951;50.778;7.196;2023-12-14T12:16:44;6.00;99.90
9824;DHT22;4951;50.778;7.196;2023-12-14T12:19:22;6.00;99.90
9824;DHT22;4951;50.778;7.196;2023-12-14T12:21:52;6.00;99.90
9824;DHT22;4951;50.778;7.196;2023-12-14T12:24:23;5.90;99.90
9824;DHT22;4951;50.778;7.196;2023-12-14T12:26:55;5.90;99.90
9824;DHT22;4951;50.778;7.196;2023-12-14T12:29:29;5.80;99.90
9824;DHT22;4951;50.778;7.196;2023-12-14T12:32:06;5.80;99.90
9824;DHT22;4951;50.778;7.196;2023-12-14T12:34:41;5.80;99.90
9824;DHT22;4951;50.778;7.196;2023-12-14T12:37:13;5.70;99.90
9824;DHT22;4951;50.778;7.196;2023-12-14T12:39:56;5.70;99.90
9824;DHT22;4951;50.778;7.196;2023-12-14T12:42:33;5.70;99.90
9824;DHT22;4951;50.778;7.196;2023-12-14T12:45:07;5.70;99.90
9824;DHT22;4951;50.778;7.196;2023-12-14T12:47:40;5.70;99.90
9824;DHT22;4951;50.778;7.196;2023-12-14T12:50:20;5.70;99.90
9824;DHT22;4951;50.778;7.196;2023-12-14T12:53:03;5.70;99.90
9824;DHT22;4951;50.778;7.196;2023-12-14T12:55:32;5.70;99.90
9824;DHT22;4951;50.778;7.196;2023-12-14T12:58:07;5.70;99.90
9824;DHT22;4951;50.778;7.196;2023-12-14T13:00:39;5.70;99.90
9824;DHT22;4951;50.778;7.196;2023-12-14T13:03:16;5.60;99.90
9824;DHT22;4951;50.778;7.196;2023-12-14T13:05:45;5.60;99.90
9824;DHT22;4951;50.778;7.196;2023-12-14T13:08:14;5.60;99.90
9824;DHT22;4951;50.778;7.196;2023-12-14T13:10:48;5.60;99.90
9824;DHT22;4951;50.778;7.196;2023-12-14T13:13:21;5.60;99.90
9824;DHT22;4951;50.778;7.196;2023-12-14T13:15:52;5.60;99.90
9824;DHT22;4951;50.778;7.196;2023-12-14T13:18:27;5.60;99.90
9824;DHT22;4951;50.778;7.196;2023-12-14T13:20:58;5.60;99.90
9824;DHT22;4951;50.778;7.196;2023-12-14T13:23:32;5.60;99.90
9824;DHT22;4951;50.778;7.196;2023-12-14T13:26:05;5.60;99.90
9824;DHT22;4951;50.778;7.196;2023-12-14T13:28:39;5.60;99.90
9824;DHT22;4951;50.778;7.196;2023-12-14T13:31:09;5.60;99.90
9824;DHT22;4951;50.778;7.196;2023-12-14T13:33:51;5.60;99.90
9824;DHT22;4951;50.778;7.196;2023-12-14T13:36:27;5.60;99.90
9824;DHT22;4951;50.778;7.196;2023-12-14T13:38:57;5.60;99.90
9824;DHT22;4951;50.778;7.196;2023-12-14T13:41:28;5.60;99.90
9824;DHT22;4951;50.778;7.196;2023-12-14T13:44:01;5.60;99.90
9824;DHT22;4951;50.778;7.196;2023-12-14T13:46:31;5.60;99.90
9824;DHT22;4951;50.778;7.196;2023-12-14T13:49:11;5.60;99.90
9824;DHT22;4951;50.778;7.196;2023-12-14T13:51:39;5.60;99.90
9824;DHT22;4951;50.778;7.196;2023-12-14T13:54:15;5.70;99.90
9824;DHT22;4951;50.778;7.196;2023-12-14T13:56:49;5.70;99.90
9824;DHT22;4951;50.778;7.196;2023-12-14T13:59:21;5.70;99.90
9824;DHT22;4951;50.778;7.196;2023-12-14T14:01:55;5.70;99.90
9824;DHT22;4951;50.778;7.196;2023-12-14T14:04:31;5.70;99.90
9824;DHT22;4951;50.778;7.196;2023-12-14T14:07:01;5.70;99.90
9824;DHT22;4951;50.778;7.196;2023-12-14T14:09:33;5.70;99.90
9824;DHT22;4951;50.778;7.196;2023-12-14T14:12:10;5.70;99.90
9824;DHT22;4951;50.778;7.196;2023-12-14T14:14:40;5.70;99.90
9824;DHT22;4951;50.778;7.196;2023-12-14T14:17:12;5.80;99.90
9824;DHT22;4951;50.778;7.196;2023-12-14T14:19:44;5.80;99.90
9824;DHT22;4951;50.778;7.196;2023-12-14T14:22:19;5.70;99.90
9824;DHT22;4951;50.778;7.196;2023-12-14T14:24:57;5.70;99.90
9824;DHT22;4951;50.778;7.196;2023-12-14T14:27:27;5.70;99.30
9824;DHT22;4951;50.778;7.196;2023-12-14T14:30:03;5.70;98.60
9824;DHT22;4951;50.778;7.196;2023-12-14T14:32:36;5.70;97.00
9824;DHT22;4951;50.778;7.196;2023-12-14T14:35:09;5.70;95.50
9824;DHT22;4951;50.778;7.196;2023-12-14T14:37:40;5.70;90.90
9824;DHT22;4951;50.778;7.196;2023-12-14T14:40:19;5.70;84.50
9824;DHT22;4951;50.778;7.196;2023-12-14T14:42:49;5.70;80.90
9824;DHT22;4951;50.778;7.196;2023-12-14T14:45:20;5.60;75.50
9824;DHT22;4951;50.778;7.196;2023-12-14T14:47:48;5.60;70.00
9824;DHT22;4951;50.778;7.196;2023-12-14T14:50:24;5.60;64.30
9824;DHT22;4951;50.778;7.196;2023-12-14T14:52:56;5.60;61.80
9824;DHT22;4951;50.778;7.196;2023-12-14T14:55:25;5.60;58.80
9824;DHT22;4951;50.778;7.196;2023-12-14T14:57:56;5.60;56.40
9824;DHT22;4951;50.778;7.196;2023-12-14T15:00:30;5.60;54.80
9824;DHT22;4951;50.778;7.196;2023-12-14T15:03:03;5.60;51.50
9824;DHT22;4951;50.778;7.196;2023-12-14T15:05:43;5.60;48.70
9824;DHT22;4951;50.778;7.196;2023-12-14T15:08:11;5.60;45.60
9824;DHT22;4951;50.778;7.196;2023-12-14T15:10:42;5.50;42.60
9824;DHT22;4951;50.778;7.196;2023-12-14T15:13:13;5.50;39.70
9824;DHT22;4951;50.778;7.196;2023-12-14T15:15:48;5.50;38.90
9824;DHT22;4951;50.778;7.196;2023-12-14T15:18:22;5.50;37.80
9824;DHT22;4951;50.778;7.196;2023-12-14T15:21:01;5.50;36.10
9824;DHT22;4951;50.778;7.196;2023-12-14T15:23:34;5.50;34.60
9824;DHT22;4951;50.778;7.196;2023-12-14T15:26:05;5.50;34.30
9824;DHT22;4951;50.778;7.196;2023-12-14T15:28:35;5.50;33.60
9824;DHT22;4951;50.778;7.196;2023-12-14T15:31:08;5.50;33.00
9824;DHT22;4951;50.778;7.196;2023-12-14T15:33:40;5.40;31.70
9824;DHT22;4951;50.778;7.196;2023-12-14T15:36:14;5.50;31.40
9824;DHT22;4951;50.778;7.196;2023-12-14T15:38:45;5.50;30.20
9824;DHT22;4951;50.778;7.196;2023-12-14T15:41:21;5.40;29.40
9824;DHT22;4951;50.778;7.196;2023-12-14T15:43:55;5.40;30.40
9824;DHT22;4951;50.778;7.196;2023-12-14T15:46:25;5.40;35.80
9824;DHT22;4951;50.778;7.196;2023-12-14T15:48:57;5.40;38.30
9824;DHT22;4951;50.778;7.196;2023-12-14T15:51:33;5.40;38.10
9824;DHT22;4951;50.778;7.196;2023-12-14T15:54:05;5.40;39.30
9824;DHT22;4951;50.778;7.196;2023-12-14T15:56:38;5.40;41.00
9824;DHT22;4951;50.778;7.196;2023-12-14T15:59:09;5.40;42.30
9824;DHT22;4951;50.778;7.196;2023-12-14T16:01:43;5.50;44.10
9824;DHT22;4951;50.778;7.196;2023-12-14T16:04:13;5.40;43.20
9824;DHT22;4951;50.778;7.196;2023-12-14T16:06:42;5.40;39.20
9824;DHT22;4951;50.778;7.196;2023-12-14T16:09:12;5.40;32.10
9824;DHT22;4951;50.778;7.196;2023-12-14T16:11:42;5.30;30.00
9824;DHT22;4951;50.778;7.196;2023-12-14T16:14:12;5.30;28.80
9824;DHT22;4951;50.778;7.196;2023-12-14T16:17:31;5.30;26.40
9824;DHT22;4951;50.778;7.196;2023-12-14T16:20:06;5.20;22.70
9824;DHT22;4951;50.778;7.196;2023-12-14T16:22:38;5.20;21.80
9824;DHT22;4951;50.778;7.196;2023-12-14T16:25:09;5.10;19.70
9824;DHT22;4951;50.778;7.196;2023-12-14T16:27:46;5.10;19.80
9824;DHT22;4951;50.778;7.196;2023-12-14T16:30:25;5.00;20.90
9824;DHT22;4951;50.778;7.196;2023-12-14T16:33:02;5.00;21.40
9824;DHT22;4951;50.778;7.196;2023-12-14T16:35:49;5.00;22.80
9824;DHT22;4951;50.778;7.196;2023-12-14T16:38:21;5.00;25.30
9824;DHT22;4951;50.778;7.196;2023-12-14T16:40:53;5.00;26.40
9824;DHT22;4951;50.778;7.196;2023-12-14T16:43:27;5.00;25.70
9824;DHT22;4951;50.778;7.196;2023-12-14T16:46:01;5.00;26.00
9824;DHT22;4951;50.778;7.196;2023-12-14T16:48:34;5.00;26.20
9824;DHT22;4951;50.778;7.196;2023-12-14T16:51:11;5.00;26.90
9824;DHT22;4951;50.778;7.196;2023-12-14T16:53:46;5.00;27.80
9824;DHT22;4951;50.778;7.196;2023-12-14T16:56:20;5.00;29.10
9824;DHT22;4951;50.778;7.196;2023-12-14T16:58:57;5.00;29.10
9824;DHT22;4951;50.778;7.196;2023-12-14T17:01:29;5.00;28.70
9824;DHT22;4951;50.778;7.196;2023-12-14T17:04:00;5.00;26.30
9824;DHT22;4951;50.778;7.196;2023-12-14T17:06:31;5.10;23.70
9824;DHT22;4951;50.778;7.196;2023-12-14T17:09:00;5.00;22.40